sensor_id;sensor_type;location;lat;lon;timestamp;P1;durP1;ratioP1;P2;durP2;ratioP2
59938;SDS011;45801;51.810;19.444;2022-11-11T00:00:38;20.40;;;14.40;;
59938;SDS011;45801;51.810;19.444;2022-11-11T00:03:14;22.00;;;13.80;;
59938;SDS011;45801;51.810;19.444;2022-11-11T00:05:41;23.10;;;14.50;;
59938;SDS011;45801;51.810;19.444;2022-11-11T00:08:08;20.90;;;14.50;;
59938;SDS011;45801;51.810;19.444;2022-11-11T00:10:40;20.70;;;14.20;;
59938;SDS011;45801;51.810;19.444;2022-11-11T00:13:08;20.30;;;14.60;;
59938;SDS011;45801;51.810;19.444;2022-11-11T00:15:38;22.20;;;14.50;;
59938;SDS011;45801;51.810;19.444;2022-11-11T00:18:04;18.40;;;13.50;;
59938;SDS011;45801;51.810;19.444;2022-11-11T00:20:50;19.00;;;14.80;;
59938;SDS011;45801;51.810;19.444;2022-11-11T00:23:35;21.20;;;13.70;;
59938;SDS011;45801;51.810;19.444;2022-11-11T00:26:20;20.40;;;14.70;;
59938;SDS011;45801;51.810;19.444;2022-11-11T00:28:46;19.50;;;14.40;;
59938;SDS011;45801;51.810;19.444;2022-11-11T00:31:13;21.90;;;14.10;;
59938;SDS011;45801;51.810;19.444;2022-11-11T00:33:40;18.70;;;12.80;;
59938;SDS011;45801;51.810;19.444;2022-11-11T00:36:07;21.20;;;13.90;;
59938;SDS011;45801;51.810;19.444;2022-11-11T00:38:34;20.50;;;13.60;;
59938;SDS011;45801;51.810;19.444;2022-11-11T00:41:14;20.00;;;13.20;;
59938;SDS011;45801;51.810;19.444;2022-11-11T00:43:44;18.40;;;13.40;;
59938;SDS011;45801;51.810;19.444;2022-11-11T00:46:12;18.20;;;12.60;;
59938;SDS011;45801;51.810;19.444;2022-11-11T00:48:59;22.10;;;14.10;;
59938;SDS011;45801;51.810;19.444;2022-11-11T00:51:44;17.50;;;13.10;;
59938;SDS011;45801;51.810;19.444;2022-11-11T00:54:11;18.70;;;13.20;;
59938;SDS011;45801;51.810;19.444;2022-11-11T00:56:38;18.20;;;12.90;;
59938;SDS011;45801;51.810;19.444;2022-11-11T00:59:05;19.50;;;13.50;;
59938;SDS011;45801;51.810;19.444;2022-11-11T01:01:34;18.70;;;13.80;;
59938;SDS011;45801;51.810;19.444;2022-11-11T01:04:02;19.90;;;13.20;;
59938;SDS011;45801;51.810;19.444;2022-11-11T01:06:29;22.30;;;13.90;;
59938;SDS011;45801;51.810;19.444;2022-11-11T01:08:56;18.70;;;13.60;;
59938;SDS011;45801;51.810;19.444;2022-11-11T01:11:23;21.00;;;14.30;;
59938;SDS011;45801;51.810;19.444;2022-11-11T01:13:50;17.80;;;12.20;;
59938;SDS011;45801;51.810;19.444;2022-11-11T01:16:20;21.20;;;13.60;;
59938;SDS011;45801;51.810;19.444;2022-11-11T01:18:49;18.30;;;12.00;;
59938;SDS011;45801;51.810;19.444;2022-11-11T01:21:17;20.60;;;13.20;;
59938;SDS011;45801;51.810;19.444;2022-11-11T01:23:46;18.00;;;12.10;;
59938;SDS011;45801;51.810;19.444;2022-11-11T01:26:16;20.30;;;12.50;;
59938;SDS011;45801;51.810;19.444;2022-11-11T01:28:48;23.20;;;13.20;;
59938;SDS011;45801;51.810;19.444;2022-11-11T01:31:17;18.70;;;12.20;;
59938;SDS011;45801;51.810;19.444;2022-11-11T01:33:45;21.50;;;13.40;;
59938;SDS011;45801;51.810;19.444;2022-11-11T01:36:17;22.40;;;13.80;;
59938;SDS011;45801;51.810;19.444;2022-11-11T01:38:49;17.80;;;12.00;;
59938;SDS011;45801;51.810;19.444;2022-11-11T01:41:19;20.00;;;12.80;;
59938;SDS011;45801;51.810;19.444;2022-11-11T01:43:58;16.70;;;12.80;;
59938;SDS011;45801;51.810;19.444;2022-11-11T01:54:37;20.70;;;12.70;;
59938;SDS011;45801;51.810;19.444;2022-11-11T01:57:14;17.50;;;12.40;;
59938;SDS011;45801;51.810;19.444;2022-11-11T01:59:47;20.10;;;12.70;;
59938;SDS011;45801;51.810;19.444;2022-11-11T02:02:23;20.40;;;12.80;;
59938;SDS011;45801;51.810;19.444;2022-11-11T02:04:55;16.60;;;11.60;;
59938;SDS011;45801;51.810;19.444;2022-11-11T02:07:41;19.30;;;11.70;;
59938;SDS011;45801;51.810;19.444;2022-11-11T02:10:08;18.70;;;12.70;;
59938;SDS011;45801;51.810;19.444;2022-11-11T02:12:35;21.20;;;13.00;;
59938;SDS011;45801;51.810;19.444;2022-11-11T02:15:20;17.80;;;12.80;;
59938;SDS011;45801;51.810;19.444;2022-11-11T02:17:47;18.40;;;12.20;;
59938;SDS011;45801;51.810;19.444;2022-11-11T02:20:17;16.60;;;11.30;;
59938;SDS011;45801;51.810;19.444;2022-11-11T02:22:51;19.60;;;11.60;;
59938;SDS011;45801;51.810;19.444;2022-11-11T02:25:25;17.30;;;11.60;;
59938;SDS011;45801;51.810;19.444;2022-11-11T02:27:56;18.90;;;11.70;;
59938;SDS011;45801;51.810;19.444;2022-11-11T02:30:25;18.50;;;11.60;;
59938;SDS011;45801;51.810;19.444;2022-11-11T02:32:52;17.70;;;11.70;;
59938;SDS011;45801;51.810;19.444;2022-11-11T02:37:57;20.00;;;12.50;;
59938;SDS011;45801;51.810;19.444;2022-11-11T02:40:34;17.50;;;11.30;;
59938;SDS011;45801;51.810;19.444;2022-11-11T02:43:04;18.90;;;11.80;;
59938;SDS011;45801;51.810;19.444;2022-11-11T02:45:30;18.00;;;11.80;;
59938;SDS011;45801;51.810;19.444;2022-11-11T02:47:57;16.30;;;11.10;;
59938;SDS011;45801;51.810;19.444;2022-11-11T02:50:23;16.10;;;11.30;;
59938;SDS011;45801;51.810;19.444;2022-11-11T02:52:50;20.90;;;12.00;;
59938;SDS011;45801;51.810;19.444;2022-11-11T02:55:16;17.40;;;12.80;;
59938;SDS011;45801;51.810;19.444;2022-11-11T02:57:42;19.40;;;12.10;;
59938;SDS011;45801;51.810;19.444;2022-11-11T03:00:09;19.40;;;11.70;;
59938;SDS011;45801;51.810;19.444;2022-11-11T03:02:36;17.50;;;12.40;;
59938;SDS011;45801;51.810;19.444;2022-11-11T03:05:03;20.20;;;11.30;;
59938;SDS011;45801;51.810;19.444;2022-11-11T03:07:29;18.30;;;11.20;;
59938;SDS011;45801;51.810;19.444;2022-11-11T03:09:56;15.90;;;11.10;;
59938;SDS011;45801;51.810;19.444;2022-11-11T03:12:22;19.90;;;11.60;;
59938;SDS011;45801;51.810;19.444;2022-11-11T03:14:49;19.10;;;12.40;;
59938;SDS011;45801;51.810;19.444;2022-11-11T03:17:15;19.40;;;11.90;;
59938;SDS011;45801;51.810;19.444;2022-11-11T03:20:01;19.20;;;11.60;;
59938;SDS011;45801;51.810;19.444;2022-11-11T03:22:57;16.80;;;10.90;;
59938;SDS011;45801;51.810;19.444;2022-11-11T03:25:25;20.40;;;12.50;;
59938;SDS011;45801;51.810;19.444;2022-11-11T03:28:08;15.70;;;11.10;;
59938;SDS011;45801;51.810;19.444;2022-11-11T03:30:37;18.50;;;11.30;;
59938;SDS011;45801;51.810;19.444;2022-11-11T03:33:05;17.70;;;10.90;;
59938;SDS011;45801;51.810;19.444;2022-11-11T03:35:32;16.20;;;11.20;;
59938;SDS011;45801;51.810;19.444;2022-11-11T03:38:00;16.30;;;10.40;;
59938;SDS011;45801;51.810;19.444;2022-11-11T03:40:46;19.00;;;11.50;;
59938;SDS011;45801;51.810;19.444;2022-11-11T03:43:14;17.10;;;10.80;;
59938;SDS011;45801;51.810;19.444;2022-11-11T03:45:43;19.70;;;12.40;;
59938;SDS011;45801;51.810;19.444;2022-11-11T03:48:11;19.00;;;12.00;;
59938;SDS011;45801;51.810;19.444;2022-11-11T03:50:38;17.90;;;10.90;;
59938;SDS011;45801;51.810;19.444;2022-11-11T03:53:05;18.70;;;10.70;;
59938;SDS011;45801;51.810;19.444;2022-11-11T03:55:32;19.80;;;11.80;;
59938;SDS011;45801;51.810;19.444;2022-11-11T03:57:59;17.10;;;10.80;;
59938;SDS011;45801;51.810;19.444;2022-11-11T04:00:26;19.30;;;10.90;;
59938;SDS011;45801;51.810;19.444;2022-11-11T04:03:27;18.00;;;10.70;;
59938;SDS011;45801;51.810;19.444;2022-11-11T04:06:07;17.30;;;10.80;;
59938;SDS011;45801;51.810;19.444;2022-11-11T04:08:54;17.90;;;11.60;;
59938;SDS011;45801;51.810;19.444;2022-11-11T04:11:40;16.00;;;11.00;;
59938;SDS011;45801;51.810;19.444;2022-11-11T04:14:11;20.20;;;11.20;;
59938;SDS011;45801;51.810;19.444;2022-11-11T04:16:57;16.40;;;11.10;;
59938;SDS011;45801;51.810;19.444;2022-11-11T04:19:24;16.50;;;11.30;;
59938;SDS011;45801;51.810;19.444;2022-11-11T04:22:09;20.80;;;11.30;;
59938;SDS011;45801;51.810;19.444;2022-11-11T04:24:36;20.50;;;11.40;;
59938;SDS011;45801;51.810;19.444;2022-11-11T04:27:21;16.20;;;10.90;;
59938;SDS011;45801;51.810;19.444;2022-11-11T04:29:48;18.90;;;10.50;;
59938;SDS011;45801;51.810;19.444;2022-11-11T04:32:16;15.50;;;10.30;;
59938;SDS011;45801;51.810;19.444;2022-11-11T04:35:04;15.20;;;10.50;;
59938;SDS011;45801;51.810;19.444;2022-11-11T04:37:36;18.80;;;10.50;;
59938;SDS011;45801;51.810;19.444;2022-11-11T04:40:15;20.10;;;10.90;;
59938;SDS011;45801;51.810;19.444;2022-11-11T04:43:01;18.80;;;11.70;;
59938;SDS011;45801;51.810;19.444;2022-11-11T04:45:28;19.60;;;10.20;;
59938;SDS011;45801;51.810;19.444;2022-11-11T04:48:00;18.10;;;11.80;;
59938;SDS011;45801;51.810;19.444;2022-11-11T04:53:04;18.20;;;10.80;;
59938;SDS011;45801;51.810;19.444;2022-11-11T04:55:32;15.70;;;10.20;;
59938;SDS011;45801;51.810;19.444;2022-11-11T04:58:18;16.30;;;11.20;;
59938;SDS011;45801;51.810;19.444;2022-11-11T05:00:46;19.10;;;11.60;;
59938;SDS011;45801;51.810;19.444;2022-11-11T05:03:13;19.10;;;11.60;;
59938;SDS011;45801;51.810;19.444;2022-11-11T05:05:54;16.80;;;11.00;;
59938;SDS011;45801;51.810;19.444;2022-11-11T05:08:43;19.00;;;10.70;;
59938;SDS011;45801;51.810;19.444;2022-11-11T05:11:27;17.80;;;10.80;;
59938;SDS011;45801;51.810;19.444;2022-11-11T05:13:56;18.30;;;9.70;;
59938;SDS011;45801;51.810;19.444;2022-11-11T05:16:44;17.90;;;10.10;;
59938;SDS011;45801;51.810;19.444;2022-11-11T05:19:34;18.90;;;10.40;;
59938;SDS011;45801;51.810;19.444;2022-11-11T05:22:39;18.80;;;11.40;;
59938;SDS011;45801;51.810;19.444;2022-11-11T05:25:06;17.80;;;10.80;;
59938;SDS011;45801;51.810;19.444;2022-11-11T05:27:55;16.80;;;10.60;;
59938;SDS011;45801;51.810;19.444;2022-11-11T05:30:23;18.10;;;10.40;;
59938;SDS011;45801;51.810;19.444;2022-11-11T05:32:51;15.70;;;10.50;;
59938;SDS011;45801;51.810;19.444;2022-11-11T05:35:21;18.70;;;10.50;;
59938;SDS011;45801;51.810;19.444;2022-11-11T05:37:48;18.30;;;11.00;;
59938;SDS011;45801;51.810;19.444;2022-11-11T05:40:34;17.60;;;11.20;;
59938;SDS011;45801;51.810;19.444;2022-11-11T05:43:01;15.90;;;10.90;;
59938;SDS011;45801;51.810;19.444;2022-11-11T05:45:27;17.40;;;11.10;;
59938;SDS011;45801;51.810;19.444;2022-11-11T05:47:54;17.60;;;10.40;;
59938;SDS011;45801;51.810;19.444;2022-11-11T05:50:20;19.50;;;12.50;;
59938;SDS011;45801;51.810;19.444;2022-11-11T05:52:47;16.50;;;10.70;;
59938;SDS011;45801;51.810;19.444;2022-11-11T05:55:15;17.00;;;11.00;;
59938;SDS011;45801;51.810;19.444;2022-11-11T05:57:42;21.30;;;10.80;;
59938;SDS011;45801;51.810;19.444;2022-11-11T06:00:09;19.70;;;10.80;;
59938;SDS011;45801;51.810;19.444;2022-11-11T06:02:36;17.70;;;10.90;;
59938;SDS011;45801;51.810;19.444;2022-11-11T06:05:04;17.90;;;10.90;;
59938;SDS011;45801;51.810;19.444;2022-11-11T06:07:30;18.10;;;10.70;;
59938;SDS011;45801;51.810;19.444;2022-11-11T06:09:57;17.60;;;11.30;;
59938;SDS011;45801;51.810;19.444;2022-11-11T06:12:43;17.40;;;10.70;;
59938;SDS011;45801;51.810;19.444;2022-11-11T06:15:30;18.50;;;11.20;;
59938;SDS011;45801;51.810;19.444;2022-11-11T06:17:58;17.30;;;11.00;;
59938;SDS011;45801;51.810;19.444;2022-11-11T06:20:25;18.00;;;11.50;;
59938;SDS011;45801;51.810;19.444;2022-11-11T06:22:52;16.60;;;10.60;;
59938;SDS011;45801;51.810;19.444;2022-11-11T06:25:23;17.30;;;10.60;;
59938;SDS011;45801;51.810;19.444;2022-11-11T06:28:13;17.50;;;11.00;;
59938;SDS011;45801;51.810;19.444;2022-11-11T06:30:40;18.80;;;11.50;;
59938;SDS011;45801;51.810;19.444;2022-11-11T06:33:08;21.20;;;11.90;;
59938;SDS011;45801;51.810;19.444;2022-11-11T06:35:35;20.10;;;11.90;;
59938;SDS011;45801;51.810;19.444;2022-11-11T06:38:03;17.10;;;11.40;;
59938;SDS011;45801;51.810;19.444;2022-11-11T06:40:31;19.70;;;11.40;;
59938;SDS011;45801;51.810;19.444;2022-11-11T06:42:59;19.60;;;11.80;;
59938;SDS011;45801;51.810;19.444;2022-11-11T06:45:26;17.40;;;12.30;;
59938;SDS011;45801;51.810;19.444;2022-11-11T06:47:54;19.40;;;11.60;;
59938;SDS011;45801;51.810;19.444;2022-11-11T06:50:21;20.20;;;11.00;;
59938;SDS011;45801;51.810;19.444;2022-11-11T06:52:47;18.20;;;11.50;;
59938;SDS011;45801;51.810;19.444;2022-11-11T06:55:14;20.60;;;11.40;;
59938;SDS011;45801;51.810;19.444;2022-11-11T06:57:40;16.90;;;11.20;;
59938;SDS011;45801;51.810;19.444;2022-11-11T07:00:07;17.60;;;11.50;;
59938;SDS011;45801;51.810;19.444;2022-11-11T07:02:34;19.30;;;11.20;;
59938;SDS011;45801;51.810;19.444;2022-11-11T07:05:01;20.30;;;12.20;;
59938;SDS011;45801;51.810;19.444;2022-11-11T07:07:27;20.50;;;12.10;;
59938;SDS011;45801;51.810;19.444;2022-11-11T07:09:54;22.10;;;12.30;;
59938;SDS011;45801;51.810;19.444;2022-11-11T07:12:21;18.20;;;12.60;;
59938;SDS011;45801;51.810;19.444;2022-11-11T07:14:48;18.70;;;12.00;;
59938;SDS011;45801;51.810;19.444;2022-11-11T07:17:14;19.50;;;12.20;;
59938;SDS011;45801;51.810;19.444;2022-11-11T07:19:41;24.20;;;12.60;;
59938;SDS011;45801;51.810;19.444;2022-11-11T07:22:09;18.30;;;11.50;;
59938;SDS011;45801;51.810;19.444;2022-11-11T07:24:36;19.30;;;11.10;;
59938;SDS011;45801;51.810;19.444;2022-11-11T07:27:02;18.90;;;11.70;;
59938;SDS011;45801;51.810;19.444;2022-11-11T07:29:29;18.60;;;11.40;;
59938;SDS011;45801;51.810;19.444;2022-11-11T07:31:55;20.60;;;12.00;;
59938;SDS011;45801;51.810;19.444;2022-11-11T07:34:21;19.60;;;11.40;;
59938;SDS011;45801;51.810;19.444;2022-11-11T07:36:48;19.10;;;11.40;;
59938;SDS011;45801;51.810;19.444;2022-11-11T07:39:14;18.60;;;10.60;;
59938;SDS011;45801;51.810;19.444;2022-11-11T07:41:41;18.10;;;10.30;;
59938;SDS011;45801;51.810;19.444;2022-11-11T07:44:07;17.40;;;10.60;;
59938;SDS011;45801;51.810;19.444;2022-11-11T07:46:34;17.10;;;11.70;;
59938;SDS011;45801;51.810;19.444;2022-11-11T07:49:00;16.20;;;11.20;;
59938;SDS011;45801;51.810;19.444;2022-11-11T07:51:27;20.20;;;11.10;;
59938;SDS011;45801;51.810;19.444;2022-11-11T07:53:53;15.70;;;9.40;;
59938;SDS011;45801;51.810;19.444;2022-11-11T07:56:19;19.10;;;10.90;;
59938;SDS011;45801;51.810;19.444;2022-11-11T07:58:47;17.20;;;10.70;;
59938;SDS011;45801;51.810;19.444;2022-11-11T08:01:13;16.50;;;10.40;;
59938;SDS011;45801;51.810;19.444;2022-11-11T08:03:40;17.30;;;9.90;;
59938;SDS011;45801;51.810;19.444;2022-11-11T08:06:15;16.90;;;11.10;;
59938;SDS011;45801;51.810;19.444;2022-11-11T08:08:45;18.50;;;10.90;;
59938;SDS011;45801;51.810;19.444;2022-11-11T08:11:12;18.80;;;10.70;;
59938;SDS011;45801;51.810;19.444;2022-11-11T08:13:40;16.60;;;10.30;;
59938;SDS011;45801;51.810;19.444;2022-11-11T08:16:07;15.80;;;10.40;;
59938;SDS011;45801;51.810;19.444;2022-11-11T08:18:34;17.60;;;10.30;;
59938;SDS011;45801;51.810;19.444;2022-11-11T08:21:02;20.10;;;10.50;;
59938;SDS011;45801;51.810;19.444;2022-11-11T08:23:31;16.20;;;10.20;;
59938;SDS011;45801;51.810;19.444;2022-11-11T08:26:01;17.10;;;9.90;;
59938;SDS011;45801;51.810;19.444;2022-11-11T08:28:30;20.00;;;10.40;;
59938;SDS011;45801;51.810;19.444;2022-11-11T08:30:58;17.00;;;8.90;;
59938;SDS011;45801;51.810;19.444;2022-11-11T08:33:32;14.10;;;9.00;;
59938;SDS011;45801;51.810;19.444;2022-11-11T08:35:58;17.70;;;9.90;;
59938;SDS011;45801;51.810;19.444;2022-11-11T08:38:25;14.70;;;8.80;;
59938;SDS011;45801;51.810;19.444;2022-11-11T08:40:52;19.20;;;9.10;;
59938;SDS011;45801;51.810;19.444;2022-11-11T08:43:19;17.50;;;9.30;;
59938;SDS011;45801;51.810;19.444;2022-11-11T08:45:51;15.60;;;9.10;;
59938;SDS011;45801;51.810;19.444;2022-11-11T08:48:18;16.50;;;8.90;;
59938;SDS011;45801;51.810;19.444;2022-11-11T08:50:44;15.10;;;8.40;;
59938;SDS011;45801;51.810;19.444;2022-11-11T08:53:11;13.90;;;8.50;;
59938;SDS011;45801;51.810;19.444;2022-11-11T08:55:37;15.60;;;8.10;;
59938;SDS011;45801;51.810;19.444;2022-11-11T08:58:05;15.60;;;8.10;;
59938;SDS011;45801;51.810;19.444;2022-11-11T09:00:32;15.90;;;8.40;;
59938;SDS011;45801;51.810;19.444;2022-11-11T09:03:04;11.90;;;7.50;;
59938;SDS011;45801;51.810;19.444;2022-11-11T09:05:32;16.50;;;9.00;;
59938;SDS011;45801;51.810;19.444;2022-11-11T09:07:59;14.80;;;8.70;;
59938;SDS011;45801;51.810;19.444;2022-11-11T09:10:27;15.30;;;8.20;;
59938;SDS011;45801;51.810;19.444;2022-11-11T09:12:57;16.10;;;8.90;;
59938;SDS011;45801;51.810;19.444;2022-11-11T09:15:24;16.50;;;8.70;;
59938;SDS011;45801;51.810;19.444;2022-11-11T09:17:52;14.00;;;7.90;;
59938;SDS011;45801;51.810;19.444;2022-11-11T09:20:19;16.70;;;8.40;;
59938;SDS011;45801;51.810;19.444;2022-11-11T09:22:47;14.80;;;7.90;;
59938;SDS011;45801;51.810;19.444;2022-11-11T09:25:14;17.60;;;7.90;;
59938;SDS011;45801;51.810;19.444;2022-11-11T09:27:41;13.20;;;6.50;;
59938;SDS011;45801;51.810;19.444;2022-11-11T09:30:09;14.00;;;6.90;;
59938;SDS011;45801;51.810;19.444;2022-11-11T09:32:36;13.40;;;7.00;;
59938;SDS011;45801;51.810;19.444;2022-11-11T09:35:03;13.70;;;7.10;;
59938;SDS011;45801;51.810;19.444;2022-11-11T09:37:29;14.50;;;7.00;;
59938;SDS011;45801;51.810;19.444;2022-11-11T09:39:56;14.60;;;7.00;;
59938;SDS011;45801;51.810;19.444;2022-11-11T09:45:22;14.50;;;7.00;;
59938;SDS011;45801;51.810;19.444;2022-11-11T09:50:38;14.50;;;6.90;;
59938;SDS011;45801;51.810;19.444;2022-11-11T09:56:00;12.40;;;6.20;;
59938;SDS011;45801;51.810;19.444;2022-11-11T10:01:28;12.30;;;6.00;;
59938;SDS011;45801;51.810;19.444;2022-11-11T10:04:01;13.20;;;6.30;;
59938;SDS011;45801;51.810;19.444;2022-11-11T10:06:52;12.90;;;6.20;;
59938;SDS011;45801;51.810;19.444;2022-11-11T10:09:40;14.70;;;6.00;;
59938;SDS011;45801;51.810;19.444;2022-11-11T10:12:13;14.00;;;6.60;;
59938;SDS011;45801;51.810;19.444;2022-11-11T10:14:46;13.10;;;6.30;;
59938;SDS011;45801;51.810;19.444;2022-11-11T10:20:18;15.20;;;7.00;;
59938;SDS011;45801;51.810;19.444;2022-11-11T10:22:52;12.30;;;6.10;;
59938;SDS011;45801;51.810;19.444;2022-11-11T10:25:32;12.10;;;6.50;;
59938;SDS011;45801;51.810;19.444;2022-11-11T10:28:00;16.60;;;8.80;;
59938;SDS011;45801;51.810;19.444;2022-11-11T10:30:30;16.10;;;8.80;;
59938;SDS011;45801;51.810;19.444;2022-11-11T10:35:30;17.40;;;7.40;;
59938;SDS011;45801;51.810;19.444;2022-11-11T10:38:44;12.20;;;6.30;;
59938;SDS011;45801;51.810;19.444;2022-11-11T10:43:45;12.60;;;7.00;;
59938;SDS011;45801;51.810;19.444;2022-11-11T10:51:29;12.30;;;6.40;;
59938;SDS011;45801;51.810;19.444;2022-11-11T10:54:05;12.70;;;6.30;;
59938;SDS011;45801;51.810;19.444;2022-11-11T10:56:41;12.40;;;5.80;;
59938;SDS011;45801;51.810;19.444;2022-11-11T10:59:30;13.30;;;6.70;;
59938;SDS011;45801;51.810;19.444;2022-11-11T11:04:46;14.20;;;6.40;;
59938;SDS011;45801;51.810;19.444;2022-11-11T11:07:17;14.30;;;6.80;;
59938;SDS011;45801;51.810;19.444;2022-11-11T11:10:02;13.00;;;6.20;;
59938;SDS011;45801;51.810;19.444;2022-11-11T11:12:37;12.20;;;6.70;;
59938;SDS011;45801;51.810;19.444;2022-11-11T11:15:21;12.60;;;5.70;;
59938;SDS011;45801;51.810;19.444;2022-11-11T11:20:28;16.70;;;6.40;;
59938;SDS011;45801;51.810;19.444;2022-11-11T11:22:55;14.70;;;5.60;;
59938;SDS011;45801;51.810;19.444;2022-11-11T11:25:25;10.90;;;5.10;;
59938;SDS011;45801;51.810;19.444;2022-11-11T11:28:08;11.50;;;5.60;;
59938;SDS011;45801;51.810;19.444;2022-11-11T11:30:52;14.50;;;5.50;;
59938;SDS011;45801;51.810;19.444;2022-11-11T11:33:27;9.80;;;5.20;;
59938;SDS011;45801;51.810;19.444;2022-11-11T11:36:37;11.90;;;5.50;;
59938;SDS011;45801;51.810;19.444;2022-11-11T11:39:08;15.70;;;7.00;;
59938;SDS011;45801;51.810;19.444;2022-11-11T11:41:47;11.10;;;4.60;;
59938;SDS011;45801;51.810;19.444;2022-11-11T11:46:54;11.40;;;6.10;;
59938;SDS011;45801;51.810;19.444;2022-11-11T11:52:08;12.40;;;5.30;;
59938;SDS011;45801;51.810;19.444;2022-11-11T11:57:49;11.90;;;5.70;;
59938;SDS011;45801;51.810;19.444;2022-11-11T12:05:57;10.10;;;4.70;;
59938;SDS011;45801;51.810;19.444;2022-11-11T12:11:17;12.50;;;5.40;;
59938;SDS011;45801;51.810;19.444;2022-11-11T12:14:21;12.10;;;5.70;;
59938;SDS011;45801;51.810;19.444;2022-11-11T12:17:12;14.90;;;7.30;;
59938;SDS011;45801;51.810;19.444;2022-11-11T12:28:13;13.90;;;6.50;;
59938;SDS011;45801;51.810;19.444;2022-11-11T12:30:58;15.30;;;6.90;;
59938;SDS011;45801;51.810;19.444;2022-11-11T12:39:27;14.60;;;5.80;;
59938;SDS011;45801;51.810;19.444;2022-11-11T12:42:24;16.00;;;7.20;;
59938;SDS011;45801;51.810;19.444;2022-11-11T12:47:42;15.10;;;7.00;;
59938;SDS011;45801;51.810;19.444;2022-11-11T12:53:23;13.80;;;7.70;;
59938;SDS011;45801;51.810;19.444;2022-11-11T12:56:12;12.90;;;7.50;;
59938;SDS011;45801;51.810;19.444;2022-11-11T13:01:29;13.60;;;6.90;;
59938;SDS011;45801;51.810;19.444;2022-11-11T13:04:21;11.40;;;5.70;;
59938;SDS011;45801;51.810;19.444;2022-11-11T13:10:02;14.10;;;6.30;;
59938;SDS011;45801;51.810;19.444;2022-11-11T13:12:43;11.70;;;6.00;;
59938;SDS011;45801;51.810;19.444;2022-11-11T13:17:51;13.90;;;6.40;;
59938;SDS011;45801;51.810;19.444;2022-11-11T13:23:14;11.50;;;5.70;;
59938;SDS011;45801;51.810;19.444;2022-11-11T13:25:45;11.50;;;5.80;;
59938;SDS011;45801;51.810;19.444;2022-11-11T13:28:29;12.00;;;5.20;;
59938;SDS011;45801;51.810;19.444;2022-11-11T13:31:18;10.70;;;5.60;;
59938;SDS011;45801;51.810;19.444;2022-11-11T13:33:50;12.10;;;5.50;;
59938;SDS011;45801;51.810;19.444;2022-11-11T13:36:25;13.90;;;6.40;;
59938;SDS011;45801;51.810;19.444;2022-11-11T13:38:57;11.80;;;5.30;;
59938;SDS011;45801;51.810;19.444;2022-11-11T13:41:28;10.50;;;4.40;;
59938;SDS011;45801;51.810;19.444;2022-11-11T13:43:58;13.70;;;5.40;;
59938;SDS011;45801;51.810;19.444;2022-11-11T13:46:37;12.50;;;5.80;;
59938;SDS011;45801;51.810;19.444;2022-11-11T13:49:25;9.90;;;4.60;;
59938;SDS011;45801;51.810;19.444;2022-11-11T13:51:57;10.60;;;5.10;;
59938;SDS011;45801;51.810;19.444;2022-11-11T13:57:02;10.40;;;5.40;;
59938;SDS011;45801;51.810;19.444;2022-11-11T13:59:34;10.40;;;5.10;;
59938;SDS011;45801;51.810;19.444;2022-11-11T14:02:25;12.30;;;6.50;;
59938;SDS011;45801;51.810;19.444;2022-11-11T14:05:16;12.00;;;6.60;;
59938;SDS011;45801;51.810;19.444;2022-11-11T14:20:56;14.50;;;5.60;;
59938;SDS011;45801;51.810;19.444;2022-11-11T14:33:42;10.10;;;4.60;;
59938;SDS011;45801;51.810;19.444;2022-11-11T14:47:38;14.70;;;5.50;;
59938;SDS011;45801;51.810;19.444;2022-11-11T14:52:28;15.00;;;6.00;;
59938;SDS011;45801;51.810;19.444;2022-11-11T15:00:08;15.90;;;7.20;;
59938;SDS011;45801;51.810;19.444;2022-11-11T15:02:44;16.60;;;8.10;;
59938;SDS011;45801;51.810;19.444;2022-11-11T15:21:43;15.90;;;8.30;;
59938;SDS011;45801;51.810;19.444;2022-11-11T15:24:59;18.90;;;11.00;;
59938;SDS011;45801;51.810;19.444;2022-11-11T15:27:52;17.90;;;10.30;;
59938;SDS011;45801;51.810;19.444;2022-11-11T15:30:21;15.20;;;8.50;;
59938;SDS011;45801;51.810;19.444;2022-11-11T15:38:18;13.60;;;6.70;;
59938;SDS011;45801;51.810;19.444;2022-11-11T15:40:48;14.20;;;6.40;;
59938;SDS011;45801;51.810;19.444;2022-11-11T15:43:22;13.50;;;6.40;;
59938;SDS011;45801;51.810;19.444;2022-11-11T15:45:59;16.30;;;7.10;;
59938;SDS011;45801;51.810;19.444;2022-11-11T15:48:32;12.70;;;6.70;;
59938;SDS011;45801;51.810;19.444;2022-11-11T15:51:13;15.30;;;7.80;;
59938;SDS011;45801;51.810;19.444;2022-11-11T15:53:46;16.00;;;7.40;;
59938;SDS011;45801;51.810;19.444;2022-11-11T15:56:27;13.00;;;7.40;;
59938;SDS011;45801;51.810;19.444;2022-11-11T15:58:55;13.90;;;6.90;;
59938;SDS011;45801;51.810;19.444;2022-11-11T16:01:24;14.30;;;7.30;;
59938;SDS011;45801;51.810;19.444;2022-11-11T16:03:53;13.20;;;8.20;;
59938;SDS011;45801;51.810;19.444;2022-11-11T16:06:21;15.10;;;7.90;;
59938;SDS011;45801;51.810;19.444;2022-11-11T16:08:49;16.40;;;7.30;;
59938;SDS011;45801;51.810;19.444;2022-11-11T16:11:18;14.40;;;8.00;;
59938;SDS011;45801;51.810;19.444;2022-11-11T16:13:47;15.10;;;7.30;;
59938;SDS011;45801;51.810;19.444;2022-11-11T16:16:25;13.20;;;6.90;;
59938;SDS011;45801;51.810;19.444;2022-11-11T16:24:01;14.20;;;8.30;;
59938;SDS011;45801;51.810;19.444;2022-11-11T16:26:31;15.40;;;8.90;;
59938;SDS011;45801;51.810;19.444;2022-11-11T16:28:59;16.70;;;8.70;;
59938;SDS011;45801;51.810;19.444;2022-11-11T16:33:52;16.60;;;9.00;;
59938;SDS011;45801;51.810;19.444;2022-11-11T16:36:18;15.50;;;7.70;;
59938;SDS011;45801;51.810;19.444;2022-11-11T16:38:45;16.60;;;8.20;;
59938;SDS011;45801;51.810;19.444;2022-11-11T16:41:25;15.20;;;7.30;;
59938;SDS011;45801;51.810;19.444;2022-11-11T16:43:52;16.20;;;8.30;;
59938;SDS011;45801;51.810;19.444;2022-11-11T16:49:12;15.20;;;7.80;;
59938;SDS011;45801;51.810;19.444;2022-11-11T16:51:45;13.40;;;8.40;;
59938;SDS011;45801;51.810;19.444;2022-11-11T16:54:23;17.40;;;9.10;;
59938;SDS011;45801;51.810;19.444;2022-11-11T16:56:54;18.20;;;10.80;;
59938;SDS011;45801;51.810;19.444;2022-11-11T16:59:32;21.60;;;11.20;;
59938;SDS011;45801;51.810;19.444;2022-11-11T17:02:13;19.80;;;12.60;;
59938;SDS011;45801;51.810;19.444;2022-11-11T17:04:49;21.70;;;12.20;;
59938;SDS011;45801;51.810;19.444;2022-11-11T17:07:28;20.40;;;12.20;;
59938;SDS011;45801;51.810;19.444;2022-11-11T17:12:33;20.20;;;11.70;;
59938;SDS011;45801;51.810;19.444;2022-11-11T17:15:05;22.00;;;11.70;;
59938;SDS011;45801;51.810;19.444;2022-11-11T17:17:34;19.70;;;11.90;;
59938;SDS011;45801;51.810;19.444;2022-11-11T17:20:10;20.00;;;11.20;;
59938;SDS011;45801;51.810;19.444;2022-11-11T17:22:48;22.30;;;12.70;;
59938;SDS011;45801;51.810;19.444;2022-11-11T17:25:22;21.70;;;12.70;;
59938;SDS011;45801;51.810;19.444;2022-11-11T17:27:49;20.70;;;13.00;;
59938;SDS011;45801;51.810;19.444;2022-11-11T17:30:16;22.20;;;13.30;;
59938;SDS011;45801;51.810;19.444;2022-11-11T17:32:45;21.10;;;12.70;;
59938;SDS011;45801;51.810;19.444;2022-11-11T17:35:20;20.20;;;11.70;;